This is the latest recevied weather packets stored in our database for station/object IZ6SAC-13. If no packets are shown the sender has not sent any weather packets the latest 10 day(s).
| Time | Temp. | Humidity | Pressure | Rain* | Wind** | Luminosity | Snow |
|---|---|---|---|---|---|---|---|
| 1777525532 | 11.11° C | 88% | 1021 hPa | 0 mm | - | - | - |
| 1777523718 | 11.67° C | 87% | 1020.5 hPa | 0 mm | - | - | - |
| 1777521922 | 11.67° C | 87% | 1020.4 hPa | 0 mm | - | - | - |
| 1777520126 | 11.67° C | 86% | 1020.3 hPa | 0 mm | - | - | - |
| 1777518331 | 12.22° C | 87% | 1020.1 hPa | 0 mm | - | - | - |
| 1777516516 | 12.22° C | 86% | 1020.2 hPa | 0 mm | - | - | - |
| 1777514722 | 12.22° C | 88% | 1019.8 hPa | 0 mm | - | - | - |
| 1777512927 | 12.78° C | 89% | 1019.7 hPa | 0 mm | - | - | - |
| 1777511130 | 13.33° C | 89% | 1019.4 hPa | 0 mm | - | - | - |
| 1777509332 | 13.33° C | 91% | 1019.3 hPa | 0 mm | - | - | - |
| 1777507536 | 13.33° C | 90% | 1019.2 hPa | 0.25 mm | - | - | - |
| 1777505719 | 13.33° C | 91% | 1019.2 hPa | 1.02 mm | - | - | - |
| 1777503923 | 13.33° C | 89% | 1018.9 hPa | 1.27 mm | - | - | - |
| 1777502128 | 13.33° C | 89% | 1018.6 hPa | 0.51 mm | - | - | - |
| 1777500333 | 15° C | 79% | 1018.1 hPa | 0 mm | - | - | - |
| 1777498518 | 15.56° C | 81% | 1018.1 hPa | 0 mm | - | - | - |
| 1777496723 | 16.11° C | 88% | 1017.8 hPa | 0 mm | - | - | - |
| 1777494929 | 16.11° C | 88% | 1017.6 hPa | 0 mm | - | - | - |
| 1777493134 | 15.56° C | 88% | 1017.4 hPa | 0 mm | - | - | - |
| 1777491320 | 15.56° C | 87% | 1017.2 hPa | 0 mm | - | - | - |
| 1777489525 | 15.56° C | 87% | 1016.8 hPa | 0 mm | - | - | - |
| 1777487730 | 15.56° C | 84% | 1016.3 hPa | 0 mm | - | - | - |
| 1777485934 | 16.11° C | 79% | 1016.1 hPa | 0 mm | - | - | - |
| 1777484119 | 17.22° C | 70% | 1015.8 hPa | 0 mm | - | - | - |
| 1777482324 | 18.33° C | 68% | 1015.6 hPa | 0 mm | - | - | - |
* Rain latest hour (hover to see other rain measurements)
** Current wind speed in m/s (hover to see current wind gust speed)